Time;durP1;ratioP1;P1;durP2;ratioP2;P2;SDS_P1;SDS_P2;PMS_P1;PMS_P2;Temp;Humidity;BMP_temperature;BMP_pressure;BME280_temperature;BME280_humidity;BME280_pressure;Samples;Min_cycle;Max_cycle;Signal;HPM_P1;HPM_P2
2021/07/15 00:01:48;;;;;;;;;9.00;9.00;;;;;20.12;100.00;101529.22;4957432;28;45317;-63
2021/07/15 00:04:14;;;;;;;;;10.00;9.50;;;;;20.08;100.00;101535.59;4956411;28;46684;-63
2021/07/15 00:06:41;;;;;;;;;9.00;9.00;;;;;20.05;100.00;101536.59;4956323;28;45522;-63
2021/07/15 00:09:06;;;;;;;;;10.50;8.50;;;;;20.01;100.00;101524.38;4955602;28;45407;-63
2021/07/15 00:11:37;;;;;;;;;9.75;9.00;;;;;19.95;100.00;101523.78;4955863;28;45554;-63
2021/07/15 00:14:04;;;;;;;;;10.00;9.50;;;;;19.96;100.00;101525.50;4955757;28;46086;-64
2021/07/15 00:16:30;;;;;;;;;12.00;10.00;;;;;19.80;100.00;101507.56;4956004;28;45432;-63
2021/07/15 00:18:55;;;;;;;;;10.50;10.00;;;;;19.86;100.00;101517.03;4947434;28;45342;-63
2021/07/15 00:21:23;;;;;;;;;9.75;9.00;;;;;19.85;100.00;101528.56;4955491;28;45372;-63
2021/07/15 00:23:50;;;;;;;;;11.00;9.50;;;;;19.76;100.00;101516.56;4955395;28;45530;-63
2021/07/15 00:26:17;;;;;;;;;10.50;10.25;;;;;19.78;100.00;101529.75;4956949;28;45440;-63
2021/07/15 00:28:42;;;;;;;;;11.25;11.25;;;;;19.72;100.00;101517.63;4957016;28;45448;-63
2021/07/15 00:31:09;;;;;;;;;12.00;10.75;;;;;19.72;100.00;101530.88;4955425;28;46178;-63
2021/07/15 00:33:35;;;;;;;;;10.00;10.00;;;;;19.64;100.00;101518.81;4956935;28;47328;-62
2021/07/15 00:36:02;;;;;;;;;9.75;9.75;;;;;19.61;100.00;101517.16;4952963;28;46458;-63
2021/07/15 00:38:28;;;;;;;;;11.75;10.75;;;;;19.63;100.00;101530.34;4957233;28;45363;-63
2021/07/15 00:40:54;;;;;;;;;11.50;11.00;;;;;19.58;100.00;101525.25;4955979;28;45476;-63
2021/07/15 00:43:20;;;;;;;;;13.75;12.00;;;;;19.58;100.00;101535.84;4956808;28;47128;-63
2021/07/15 00:45:46;;;;;;;;;11.50;11.50;;;;;19.51;100.00;101529.03;4950733;28;45451;-63
2021/07/15 00:48:12;;;;;;;;;12.00;11.75;;;;;19.53;100.00;101535.13;4955115;28;45360;-63
2021/07/15 00:50:38;;;;;;;;;13.00;12.50;;;;;19.46;100.00;101536.25;4939066;28;45452;-65
2021/07/15 00:53:05;;;;;;;;;12.25;11.25;;;;;19.51;100.00;101539.63;4955647;28;47163;-63
2021/07/15 00:55:33;;;;;;;;;12.50;12.50;;;;;19.40;100.00;101531.22;4955758;28;45415;-64
2021/07/15 00:58:00;;;;;;;;;10.00;9.00;;;;;19.47;100.00;101538.88;4956797;28;45412;-64
2021/07/15 01:00:27;;;;;;;;;13.75;11.75;;;;;19.44;100.00;101538.97;4958637;28;45372;-64
2021/07/15 01:03:36;;;;;;;;;14.00;13.00;;;;;19.44;100.00;101540.75;4957520;28;46697;-64
2021/07/15 01:06:02;;;;;;;;;13.25;11.00;;;;;19.38;100.00;101533.91;4957654;28;45297;-64
2021/07/15 01:08:27;;;;;;;;;11.25;11.00;;;;;19.32;100.00;101522.69;4957635;28;45375;-62
2021/07/15 01:11:07;;;;;;;;;13.00;11.50;;;;;19.31;100.00;101523.63;4957696;28;45332;-63
2021/07/15 01:13:58;;;;;;;;;13.00;10.00;;;;;19.25;100.00;101522.94;4957478;28;46097;-63
2021/07/15 01:20:03;;;;;;;;;15.00;12.25;;;;;19.22;100.00;101530.97;4957685;28;45218;-63
2021/07/15 01:22:43;;;;;;;;;15.50;12.00;;;;;19.20;100.00;101545.19;4957972;28;45265;-62
2021/07/15 01:25:48;;;;;;;;;13.50;12.25;;;;;19.16;100.00;101539.16;4957613;28;45378;-63
2021/07/15 01:28:25;;;;;;;;;13.75;12.25;;;;;19.15;100.00;101537.44;4957498;28;45541;-63
2021/07/15 01:30:54;;;;;;;;;13.00;13.00;;;;;19.14;100.00;101541.00;4957539;28;45285;-64
2021/07/15 01:36:46;;;;;;;;;12.50;11.50;;;;;19.10;100.00;101528.81;4958486;28;45847;-64
2021/07/15 01:39:14;;;;;;;;;18.75;13.00;;;;;19.13;100.00;101539.28;4960505;28;45656;-63
2021/07/15 01:41:43;;;;;;;;;16.00;14.00;;;;;19.13;100.00;101536.63;4960644;28;45355;-63
2021/07/15 01:44:36;;;;;;;;;10.25;10.00;;;;;19.14;100.00;101538.34;4960451;28;45289;-64
2021/07/15 01:47:03;;;;;;;;;14.25;12.75;;;;;19.14;100.00;101540.13;4955980;28;46350;-63
2021/07/15 01:49:28;;;;;;;;;15.50;12.00;;;;;19.11;100.00;101538.47;4960687;28;45296;-62
2021/07/15 01:51:55;;;;;;;;;12.25;11.50;;;;;19.06;100.00;101536.91;4960781;28;45324;-63
2021/07/15 01:54:21;;;;;;;;;13.50;12.75;;;;;19.08;100.00;101535.06;4960606;28;45512;-63
2021/07/15 01:56:49;;;;;;;;;15.00;13.00;;;;;19.06;100.00;101542.22;4960205;28;47133;-63
2021/07/15 01:59:20;;;;;;;;;13.25;12.75;;;;;19.05;100.00;101538.69;4960253;28;45351;-63
2021/07/15 02:01:49;;;;;;;;;16.00;13.75;;;;;19.03;100.00;101532.59;4960614;28;45314;-62
2021/07/15 02:04:14;;;;;;;;;12.75;12.00;;;;;19.02;100.00;101525.59;4960591;28;45352;-62
2021/07/15 02:06:42;;;;;;;;;14.75;13.75;;;;;19.00;100.00;101526.53;4960318;28;45437;-63
2021/07/15 02:09:11;;;;;;;;;14.00;12.00;;;;;18.95;100.00;101532.00;4960291;28;45522;-65
2021/07/15 02:11:38;;;;;;;;;13.25;12.50;;;;;18.96;100.00;101531.94;4960232;28;45331;-63
2021/07/15 02:14:07;;;;;;;;;11.75;11.25;;;;;18.96;100.00;101531.06;4960211;28;45416;-63
2021/07/15 02:16:35;;;;;;;;;12.50;11.50;;;;;18.93;100.00;101533.84;4959703;28;46254;-64
2021/07/15 02:19:03;;;;;;;;;13.50;13.50;;;;;18.96;100.00;101541.66;4960168;28;45556;-63
2021/07/15 02:21:31;;;;;;;;;12.75;11.25;;;;;18.91;100.00;101533.03;4960433;28;45348;-63
2021/07/15 02:23:58;;;;;;;;;14.25;12.50;;;;;18.94;100.00;101535.56;4960127;28;45549;-64
2021/07/15 02:26:25;;;;;;;;;14.00;13.00;;;;;18.93;100.00;101531.19;4959610;28;46421;-63
2021/07/15 02:28:51;;;;;;;;;12.00;11.25;;;;;18.88;100.00;101527.84;4960148;28;45541;-64
2021/07/15 02:31:21;;;;;;;;;16.25;14.75;;;;;18.91;100.00;101540.97;4959780;28;45387;-63
2021/07/15 02:37:11;;;;;;;;;14.75;13.25;;;;;18.89;100.00;101530.44;4959577;28;45802;-66
2021/07/15 02:39:36;;;;;;;;;13.25;11.75;;;;;18.85;100.00;101525.31;4959700;28;45431;-64
2021/07/15 02:42:02;;;;;;;;;14.00;11.50;;;;;18.86;100.00;101527.91;4959707;28;45293;-64
2021/07/15 02:44:28;;;;;;;;;16.00;13.75;;;;;18.85;100.00;101528.84;4959895;28;45294;-63
2021/07/15 02:46:54;;;;;;;;;13.25;12.00;;;;;18.87;100.00;101519.06;4959441;28;45454;-64
2021/07/15 02:49:19;;;;;;;;;14.75;13.00;;;;;18.81;100.00;101516.63;4959857;28;45237;-64
2021/07/15 02:51:45;;;;;;;;;13.25;12.50;;;;;18.81;100.00;101518.44;4959816;28;45381;-62
2021/07/15 02:54:11;;;;;;;;;14.00;14.00;;;;;18.75;100.00;101500.97;4942287;28;45374;-62
2021/07/15 02:57:02;;;;;;;;;16.50;14.50;;;;;18.85;100.00;101528.84;4959239;28;46633;-62
2021/07/15 03:00:04;;;;;;;;;16.00;14.00;;;;;18.87;100.00;101520.84;4959308;28;45668;-65
2021/07/15 03:02:34;;;;;;;;;16.50;15.00;;;;;18.82;100.00;101512.22;4959229;28;45380;-63
2021/07/15 03:05:01;;;;;;;;;16.75;14.50;;;;;18.89;100.00;101514.56;4959766;28;45297;-63
2021/07/15 03:07:30;;;;;;;;;16.75;14.25;;;;;18.87;100.00;101504.97;4959134;28;46725;-63
2021/07/15 03:09:56;;;;;;;;;14.25;13.75;;;;;18.86;100.00;101509.41;4959151;28;45632;-63
2021/07/15 03:12:24;;;;;;;;;15.75;14.75;;;;;18.81;100.00;101500.78;4959391;28;45409;-63
2021/07/15 03:14:53;;;;;;;;;16.00;15.50;;;;;18.85;100.00;101514.75;4959099;28;45342;-63
2021/07/15 03:17:25;;;;;;;;;19.00;16.25;;;;;18.83;100.00;101512.16;4959210;28;45644;-63
2021/07/15 03:19:53;;;;;;;;;16.50;15.50;;;;;18.80;100.00;101517.56;4958900;28;45285;-63
2021/07/15 03:22:20;;;;;;;;;16.75;16.25;;;;;18.78;100.00;101513.22;4959519;28;45564;-64
2021/07/15 03:24:51;;;;;;;;;19.25;16.00;;;;;18.78;100.00;101518.50;4959055;28;45455;-63
2021/07/15 03:27:18;;;;;;;;;17.75;15.75;;;;;18.77;100.00;101515.00;4958898;28;46390;-62
2021/07/15 03:29:46;;;;;;;;;19.25;17.75;;;;;18.76;100.00;101513.28;4959103;28;45388;-63
2021/07/15 03:32:12;;;;;;;;;18.25;17.00;;;;;18.79;100.00;101514.97;4959189;28;45368;-63
2021/07/15 03:34:38;;;;;;;;;17.75;16.50;;;;;18.79;100.00;101522.91;4959309;28;45344;-67
2021/07/15 03:37:05;;;;;;;;;17.25;16.25;;;;;18.81;100.00;101523.72;4958658;28;46549;-63
2021/07/15 03:39:32;;;;;;;;;19.25;17.75;;;;;18.77;100.00;101501.78;4941521;28;45269;-64
2021/07/15 03:41:57;;;;;;;;;15.50;13.50;;;;;18.77;100.00;101507.06;4958912;28;45392;-63
2021/07/15 03:44:25;;;;;;;;;18.00;16.50;;;;;18.83;100.00;101508.66;4958479;28;45505;-63
2021/07/15 03:46:51;;;;;;;;;17.00;16.50;;;;;18.89;100.00;101524.28;4958717;28;46399;-63
2021/07/15 03:52:39;;;;;;;;;18.25;16.50;;;;;18.88;100.00;101509.34;4958845;28;45344;-63
2021/07/15 03:55:07;;;;;;;;;16.00;14.50;;;;;18.91;100.00;101512.72;4958544;28;45443;-63
2021/07/15 03:57:33;;;;;;;;;17.75;16.75;;;;;18.91;100.00;101517.16;4958340;28;47170;-63
2021/07/15 04:00:00;;;;;;;;;12.75;12.75;;;;;18.90;100.00;101520.72;4957460;28;45198;-62
2021/07/15 04:02:27;;;;;;;;;18.75;17.00;;;;;18.89;100.00;101514.56;4958575;28;45173;-63
2021/07/15 04:04:56;;;;;;;;;17.75;16.75;;;;;18.88;100.00;101518.13;4958695;28;45459;-62
2021/07/15 04:07:25;;;;;;;;;17.00;15.75;;;;;18.86;100.00;101519.97;4958491;28;46488;-62
2021/07/15 04:09:52;;;;;;;;;16.50;15.25;;;;;18.84;100.00;101526.25;4958101;28;45617;-62
2021/07/15 04:12:21;;;;;;;;;15.50;14.50;;;;;18.85;100.00;101522.69;4958652;28;45443;-62
2021/07/15 04:15:04;;;;;;;;;18.25;17.75;;;;;18.86;100.00;101527.91;4958407;28;45516;-63
2021/07/15 04:17:47;;;;;;;;;16.75;15.00;;;;;18.85;100.00;101518.25;4958141;28;46280;-63
2021/07/15 04:20:14;;;;;;;;;17.25;15.75;;;;;18.83;100.00;101513.94;4940588;28;45612;-63
2021/07/15 04:22:45;;;;;;;;;16.00;14.00;;;;;18.84;100.00;101520.97;4958596;28;45334;-62
2021/07/15 04:25:15;;;;;;;;;16.50;15.75;;;;;18.81;100.00;101518.44;4958341;28;45558;-63
2021/07/15 04:27:43;;;;;;;;;16.75;14.75;;;;;18.83;100.00;101532.47;4940631;28;46773;-64
2021/07/15 04:30:10;;;;;;;;;18.00;16.75;;;;;18.83;100.00;101532.47;4958032;28;45584;-64
2021/07/15 04:32:40;;;;;;;;;19.00;16.75;;;;;18.83;100.00;101527.16;4958228;28;45268;-64
2021/07/15 04:35:08;;;;;;;;;13.75;13.00;;;;;18.81;100.00;101537.81;4958387;28;45396;-64
2021/07/15 04:37:36;;;;;;;;;13.50;13.25;;;;;18.80;100.00;101532.56;4957899;28;46233;-64
2021/07/15 04:40:02;;;;;;;;;16.25;14.00;;;;;18.76;100.00;101528.28;4958200;28;45568;-64
2021/07/15 04:42:29;;;;;;;;;16.50;14.75;;;;;18.82;100.00;101541.31;4957798;28;45423;-63
2021/07/15 04:44:55;;;;;;;;;14.00;14.00;;;;;18.71;100.00;101517.88;4958466;28;45399;-64
2021/07/15 04:47:23;;;;;;;;;17.00;15.00;;;;;18.84;100.00;101542.13;4957575;28;46532;-64
2021/07/15 04:53:14;;;;;;;;;17.75;15.75;;;;;18.87;100.00;101540.22;4957683;28;45339;-62
2021/07/15 04:55:40;;;;;;;;;15.00;14.25;;;;;18.89;100.00;101545.47;4958408;28;45427;-63
2021/07/15 04:58:06;;;;;;;;;18.25;14.75;;;;;18.83;100.00;101537.75;4957674;28;45792;-64
2021/07/15 05:00:32;;;;;;;;;15.25;13.00;;;;;18.86;100.00;101540.28;4957483;28;45285;-62
2021/07/15 05:03:09;;;;;;;;;15.75;14.25;;;;;18.88;100.00;101543.72;4957901;28;45333;-63
2021/07/15 05:05:34;;;;;;;;;15.25;12.25;;;;;18.82;100.00;101533.38;4957952;28;45356;-63
2021/07/15 05:08:00;;;;;;;;;74.25;62.00;;;;;18.91;100.00;101546.28;4957765;28;45998;-63
2021/07/15 05:10:25;;;;;;;;;25.50;25.25;;;;;18.91;100.00;101544.47;4958850;28;45386;-65
2021/07/15 05:12:50;;;;;;;;;16.50;14.50;;;;;18.97;100.00;101546.91;4961370;28;45368;-63
2021/07/15 05:15:16;;;;;;;;;16.50;14.25;;;;;18.98;100.00;101540.69;4960886;28;45418;-63
2021/07/15 05:17:41;;;;;;;;;14.50;13.25;;;;;19.06;100.00;101550.16;4961145;28;45378;-64
2021/07/15 05:20:09;;;;;;;;;17.75;17.00;;;;;19.09;100.00;101542.97;4960671;28;45423;-63
2021/07/15 05:22:36;;;;;;;;;14.75;13.50;;;;;19.11;100.00;101546.41;4960898;28;45232;-63
2021/07/15 05:25:02;;;;;;;;;19.50;17.00;;;;;19.09;100.00;101532.38;4960915;28;45356;-63
2021/07/15 05:27:27;;;;;;;;;14.50;13.00;;;;;19.21;100.00;101550.44;4960251;28;47108;-65
2021/07/15 05:29:54;;;;;;;;;16.25;15.00;;;;;19.21;100.00;101546.91;4960170;28;45383;-64
2021/07/15 05:32:19;;;;;;;;;14.50;14.00;;;;;19.28;100.00;101557.25;4960126;28;45343;-64
2021/07/15 05:38:07;;;;;;;;;19.50;15.00;;;;;19.41;100.00;101560.28;4959914;28;45372;-63
2021/07/15 05:40:33;;;;;;;;;16.75;14.75;;;;;19.42;100.00;101561.16;4960434;28;45459;-63
2021/07/15 05:42:59;;;;;;;;;17.25;14.25;;;;;19.45;100.00;101566.31;4960177;28;45416;-63
2021/07/15 05:45:24;;;;;;;;;14.75;14.50;;;;;19.52;100.00;101562.53;4960667;28;45403;-64
2021/07/15 05:47:49;;;;;;;;;19.25;16.50;;;;;19.58;100.00;101567.63;4960289;28;45384;-64
2021/07/15 05:53:37;;;;;;;;;19.75;17.00;;;;;19.75;100.00;101574.94;4959630;28;45249;-64
2021/07/15 05:56:02;;;;;;;;;16.00;15.50;;;;;19.79;100.00;101569.44;4960271;28;45447;-64
2021/07/15 05:58:27;;;;;;;;;18.25;14.00;;;;;19.83;100.00;101576.34;4942369;28;48592;-64
2021/07/15 06:00:53;;;;;;;;;15.75;13.75;;;;;19.92;100.00;101571.63;4959807;28;45381;-63
2021/07/15 06:03:18;;;;;;;;;15.00;14.50;;;;;19.94;100.00;101572.44;4960000;28;45356;-64
2021/07/15 06:05:43;;;;;;;;;15.50;14.00;;;;;20.01;100.00;101573.91;4960177;28;45366;-63
2021/07/15 06:08:09;;;;;;;;;16.75;14.00;;;;;20.00;100.00;101570.38;4959534;28;46256;-67
2021/07/15 06:10:34;;;;;;;;;16.50;14.50;;;;;20.07;100.00;101576.28;4942419;28;45387;-64
2021/07/15 06:13:00;;;;;;;;;16.50;16.25;;;;;20.08;100.00;101570.94;4960064;28;45477;-64
2021/07/15 06:15:25;;;;;;;;;14.50;13.50;;;;;20.17;100.00;101572.34;4959927;28;45359;-65
2021/07/15 06:17:51;;;;;;;;;13.75;12.75;;;;;20.19;100.00;101571.38;4959993;28;46259;-64
2021/07/15 06:23:38;;;;;;;;;17.00;14.50;;;;;20.25;100.00;101564.94;4958816;28;45332;-64
2021/07/15 06:26:05;;;;;;;;;15.75;14.50;;;;;20.26;100.00;101564.00;4959910;28;45383;-64
2021/07/15 06:28:31;;;;;;;;;15.25;15.00;;;;;20.28;100.00;101559.50;4959839;28;45413;-64
2021/07/15 06:30:56;;;;;;;;;17.50;15.75;;;;;20.43;100.00;101576.63;4959636;28;45512;-63
2021/07/15 06:33:22;;;;;;;;;16.25;14.50;;;;;20.48;100.00;101574.63;4959788;28;45359;-63
2021/07/15 06:35:50;;;;;;;;;16.00;14.00;;;;;20.61;100.00;101589.09;4959938;28;45380;-65
2021/07/15 06:38:16;;;;;;;;;16.50;14.00;;;;;20.62;100.00;101568.75;4959152;28;46322;-65
2021/07/15 06:40:47;;;;;;;;;13.75;13.75;;;;;20.70;100.00;101586.06;4959546;28;45440;-64
2021/07/15 06:43:12;;;;;;;;;13.75;12.75;;;;;20.82;100.00;101587.34;4959501;28;45409;-64
2021/07/15 06:45:38;;;;;;;;;15.00;14.00;;;;;20.85;100.00;101594.28;4959527;28;45390;-64
2021/07/15 06:48:04;;;;;;;;;15.25;14.50;;;;;20.79;100.00;101584.78;4959112;28;46190;-64
2021/07/15 06:53:51;;;;;;;;;15.00;12.50;;;;;20.75;100.00;101605.28;4959129;28;45340;-66
2021/07/15 06:56:17;;;;;;;;;12.00;10.25;;;;;20.70;100.00;101596.66;4959358;28;45355;-66
2021/07/15 06:58:42;;;;;;;;;14.75;12.75;;;;;20.71;100.00;101600.19;4958992;28;46372;-65
2021/07/15 07:01:10;;;;;;;;;13.75;13.25;;;;;20.65;100.00;101596.00;4959001;28;45353;-66
2021/07/15 07:03:36;;;;;;;;;12.00;12.00;;;;;20.69;100.00;101596.72;4959180;28;45307;-65
2021/07/15 07:06:02;;;;;;;;;12.25;12.00;;;;;20.69;100.00;101586.97;4959176;28;45364;-65
2021/07/15 07:08:27;;;;;;;;;11.50;11.50;;;;;20.68;100.00;101587.06;4958784;28;45573;-66
2021/07/15 07:10:52;;;;;;;;;12.75;12.00;;;;;20.71;100.00;101586.91;4958738;28;45360;-66
2021/07/15 07:13:18;;;;;;;;;14.00;13.25;;;;;20.79;100.00;101588.28;4959137;28;45393;-65
2021/07/15 07:15:43;;;;;;;;;12.00;11.50;;;;;20.90;100.00;101582.53;4958546;28;45296;-65
2021/07/15 07:18:08;;;;;;;;;11.25;10.75;;;;;21.05;100.00;101589.84;4958824;28;47240;-65
2021/07/15 07:23:55;;;;;;;;;12.75;11.00;;;;;21.37;100.00;101579.59;4958058;28;45285;-65
2021/07/15 07:26:21;;;;;;;;;13.50;12.00;;;;;21.39;100.00;101554.66;4958880;28;45547;-65
2021/07/15 07:28:46;;;;;;;;;12.75;10.75;;;;;21.68;100.00;101576.34;4958275;28;46220;-65
2021/07/15 07:31:11;;;;;;;;;11.75;11.00;;;;;21.88;100.00;101578.94;4958326;28;45285;-65
2021/07/15 07:33:37;;;;;;;;;11.00;11.00;;;;;21.99;100.00;101568.66;4957764;28;45269;-66
2021/07/15 07:39:24;;;;;;;;;10.50;9.75;;;;;22.47;100.00;101582.28;4958513;28;45663;-65
2021/07/15 07:41:49;;;;;;;;;9.75;8.75;;;;;22.60;100.00;101578.03;4957445;28;45364;-66
2021/07/15 07:44:15;;;;;;;;;10.75;9.50;;;;;22.71;100.00;101578.38;4957956;28;45470;-67
2021/07/15 07:46:41;;;;;;;;;13.00;11.00;;;;;22.83;100.00;101575.09;4958263;28;45451;-66
2021/07/15 07:49:07;;;;;;;;;12.25;11.25;;;;;22.93;100.00;101578.16;4957818;28;45547;-65
2021/07/15 07:51:32;;;;;;;;;10.75;10.75;;;;;23.02;100.00;101571.47;4957865;28;45715;-65
2021/07/15 07:53:58;;;;;;;;;9.25;8.75;;;;;23.20;100.00;101579.34;4957501;28;45513;-65
2021/07/15 07:56:24;;;;;;;;;10.00;9.00;;;;;23.30;100.00;101585.03;4957808;28;45508;-66
2021/07/15 07:58:49;;;;;;;;;10.75;10.50;;;;;23.34;100.00;101580.44;4957787;28;45633;-65
2021/07/15 08:01:16;;;;;;;;;10.00;8.50;;;;;23.40;100.00;101574.75;4957575;28;45455;-66
2021/07/15 08:03:41;;;;;;;;;10.00;10.00;;;;;23.52;100.00;101577.59;4958182;28;45579;-64
2021/07/15 08:09:31;;;;;;;;;11.25;10.50;;;;;23.81;100.00;101577.84;4957265;28;45534;-66
2021/07/15 08:11:56;;;;;;;;;9.50;8.25;;;;;23.91;100.00;101579.03;4957298;28;46069;-65
2021/07/15 08:14:22;;;;;;;;;9.00;8.75;;;;;23.85;100.00;101563.38;4957771;28;45422;-65
2021/07/15 08:16:48;;;;;;;;;10.25;10.00;;;;;23.85;100.00;101579.38;4957335;28;45238;-65
2021/07/15 08:19:14;;;;;;;;;8.75;8.75;;;;;23.77;100.00;101578.97;4957123;28;46547;-65
2021/07/15 08:21:40;;;;;;;;;9.50;9.50;;;;;23.82;100.00;101579.56;4957393;28;45596;-66
2021/07/15 08:24:05;;;;;;;;;12.25;10.00;;;;;23.82;100.00;101579.56;4957628;28;45558;-64
2021/07/15 08:26:31;;;;;;;;;12.00;10.25;;;;;23.80;100.00;101576.97;4957898;28;45336;-65
2021/07/15 08:28:56;;;;;;;;;8.25;8.00;;;;;23.79;100.00;101564.59;4956856;28;45364;-66
2021/07/15 08:31:25;;;;;;;;;9.00;8.25;;;;;23.76;100.00;101562.09;4957587;28;45287;-66
2021/07/15 08:33:50;;;;;;;;;8.25;7.75;;;;;23.79;100.00;101564.59;4957065;28;45480;-66
2021/07/15 08:39:37;;;;;;;;;9.25;9.25;;;;;23.98;100.00;101566.19;4956685;28;45779;-66
2021/07/15 08:42:02;;;;;;;;;8.50;7.50;;;;;24.10;100.00;101561.03;4957320;28;45380;-64
2021/07/15 08:44:28;;;;;;;;;8.75;8.75;;;;;24.18;100.00;101549.03;4957243;28;45388;-66
2021/07/15 08:46:57;;;;;;;;;10.00;10.00;;;;;24.40;100.00;101562.88;4960700;28;45381;-66
2021/07/15 08:49:23;;;;;;;;;11.00;10.25;;;;;24.49;100.00;101542.81;4960845;28;45338;-66
2021/07/15 08:51:49;;;;;;;;;10.75;10.00;;;;;24.62;100.00;101554.44;4960321;28;45308;-64
2021/07/15 08:54:16;;;;;;;;;8.25;8.00;;;;;24.97;100.00;101558.53;4960736;28;45329;-65
2021/07/15 08:56:47;;;;;;;;;10.00;9.25;;;;;25.18;100.00;101548.34;4961006;28;45372;-64
2021/07/15 08:59:14;;;;;;;;;9.00;9.00;;;;;25.43;100.00;101552.16;4960300;28;47108;-65
2021/07/15 09:01:43;;;;;;;;;10.50;9.75;;;;;25.63;100.00;101547.25;4960136;28;45264;-67
2021/07/15 09:04:10;;;;;;;;;9.00;9.00;;;;;25.83;100.00;101547.81;4960585;28;45453;-66
2021/07/15 09:06:35;;;;;;;;;10.25;8.50;;;;;25.98;100.00;101551.28;4960985;28;45399;-65
2021/07/15 09:09:02;;;;;;;;;8.50;8.50;;;;;26.14;100.00;101551.97;4960124;28;46502;-65
2021/07/15 09:11:27;;;;;;;;;8.00;8.00;;;;;26.16;100.00;101556.28;4960325;28;45390;-65
2021/07/15 09:13:53;;;;;;;;;8.25;8.25;;;;;26.18;100.00;101566.88;4959934;28;45344;-66
2021/07/15 09:16:19;;;;;;;;;9.00;9.00;;;;;26.19;100.00;101563.22;4960095;28;45497;-64
2021/07/15 09:19:01;;;;;;;;;9.25;8.50;;;;;26.22;100.00;101571.91;4942731;28;48428;-64
2021/07/15 09:24:48;;;;;;;;;9.00;8.00;;;;;26.50;100.00;101554.03;4959794;28;45493;-65
2021/07/15 09:27:16;;;;;;;;;6.25;6.25;;;;;26.75;100.00;101564.78;4960623;28;45412;-66
2021/07/15 09:29:42;;;;;;;;;7.25;7.25;;;;;27.00;100.00;101560.44;4942664;28;47021;-67
2021/07/15 09:32:08;;;;;;;;;8.25;7.25;;;;;27.20;100.00;101551.00;4959098;28;45596;-65
2021/07/15 09:34:36;;;;;;;;;9.50;9.00;;;;;27.35;100.00;101565.97;4959766;28;45311;-66
2021/07/15 09:37:14;;;;;;;;;8.75;8.00;;;;;27.47;100.00;101559.72;4959957;28;45526;-66
2021/07/15 09:39:49;;;;;;;;;8.00;7.25;;;;;27.62;100.00;101557.78;4959690;28;46323;-66
2021/07/15 09:42:18;;;;;;;;;8.25;8.00;;;;;27.90;100.00;101565.53;4959805;28;45561;-66
2021/07/15 09:44:48;;;;;;;;;10.25;9.00;;;;;28.34;100.00;101567.63;4959497;28;45419;-66
2021/07/15 09:47:32;;;;;;;;;7.00;7.00;;;;;28.82;100.00;101569.34;4960319;28;45409;-65
2021/07/15 09:49:59;;;;;;;;;8.00;7.25;;;;;29.13;100.00;101565.09;4959363;28;46197;-65
2021/07/15 09:52:25;;;;;;;;;8.50;8.50;;;;;29.34;100.00;101573.31;4959309;28;45402;-64
2021/07/15 09:54:50;;;;;;;;;7.50;7.50;;;;;29.42;100.00;101569.03;4959845;28;45480;-65
2021/07/15 09:57:29;;;;;;;;;7.50;7.50;;;;;29.56;100.00;101565.25;4958557;28;45391;-64
2021/07/15 09:59:58;;;;;;;;;8.00;8.00;;;;;29.79;100.00;101561.53;4959920;28;46322;-66
2021/07/15 10:02:32;;;;;;;;;7.25;7.25;;;;;30.15;100.00;101568.44;4959082;28;45432;-65
2021/07/15 10:04:58;;;;;;;;;8.50;7.75;;;;;30.65;100.00;101565.16;4941857;28;45349;-65
2021/07/15 10:07:26;;;;;;;;;6.50;6.50;;;;;31.30;100.00;101572.09;4958994;28;45589;-65
2021/07/15 10:10:18;;;;;;;;;5.25;5.25;;;;;32.12;100.00;101571.84;4959717;28;45371;-65
2021/07/15 10:12:44;;;;;;;;;7.50;7.50;;;;;33.04;100.00;101564.09;4958494;28;45380;-65
2021/07/15 10:15:11;;;;;;;;;6.75;6.00;;;;;33.83;100.00;101553.59;4958884;28;45470;-65
2021/07/15 10:17:45;;;;;;;;;7.75;7.50;;;;;33.54;100.00;101540.25;4959343;28;45475;-65
2021/07/15 10:20:15;;;;;;;;;7.00;7.00;;;;;33.23;100.00;101572.16;4959153;28;46510;-65
2021/07/15 10:22:42;;;;;;;;;5.75;5.75;;;;;33.09;100.00;101568.09;4959372;28;45333;-65
2021/07/15 10:25:11;;;;;;;;;6.25;6.00;;;;;33.40;100.00;101567.84;4959888;28;45365;-66
2021/07/15 10:27:40;;;;;;;;;6.75;5.75;;;;;34.03;100.00;101571.47;4958857;28;45633;-66
2021/07/15 10:30:10;;;;;;;;;8.00;6.25;;;;;34.15;100.00;101566.66;4959293;28;45485;-65
2021/07/15 10:32:37;;;;;;;;;7.00;7.00;;;;;33.89;100.00;101552.16;4958735;28;45305;-66
2021/07/15 10:35:05;;;;;;;;;7.00;7.00;;;;;33.63;100.00;101560.16;4958068;28;45492;-65
2021/07/15 10:37:37;;;;;;;;;7.25;6.75;;;;;33.39;99.83;101569.69;4959387;28;45267;-66
2021/07/15 10:40:03;;;;;;;;;5.50;5.50;;;;;33.25;97.55;101574.69;4958706;28;46407;-65
2021/07/15 10:42:31;;;;;;;;;6.00;5.50;;;;;33.06;98.03;101571.09;4959217;28;45430;-64
2021/07/15 10:44:57;;;;;;;;;6.75;6.75;;;;;33.41;96.56;101574.97;4958905;28;45341;-64
2021/07/15 10:47:26;;;;;;;;;6.00;6.00;;;;;34.26;99.73;101568.28;4959148;28;45488;-65
2021/07/15 10:49:54;;;;;;;;;5.75;5.75;;;;;35.39;93.78;101572.84;4958342;28;45600;-66
2021/07/15 10:52:21;;;;;;;;;6.75;6.50;;;;;35.15;87.40;101566.25;4941443;28;45361;-65
2021/07/15 10:54:47;;;;;;;;;7.50;6.50;;;;;34.62;89.11;101578.09;4959058;28;45379;-66
2021/07/15 10:57:13;;;;;;;;;6.00;5.50;;;;;34.07;90.98;101564.72;4959255;28;45387;-66
2021/07/15 10:59:39;;;;;;;;;4.75;4.75;;;;;34.49;90.91;101558.69;4958415;28;45439;-65
2021/07/15 11:02:25;;;;;;;;;7.00;6.00;;;;;34.57;89.30;101566.88;4958633;28;45486;-65
2021/07/15 11:04:53;;;;;;;;;7.00;6.25;;;;;34.16;89.85;101581.06;4958650;28;45489;-66
2021/07/15 11:07:34;;;;;;;;;5.00;5.00;;;;;34.28;91.01;101571.69;4959055;28;45404;-66
2021/07/15 11:10:33;;;;;;;;;6.00;6.00;;;;;34.81;89.67;101577.03;4958401;28;46749;-65
2021/07/15 11:13:05;;;;;;;;;6.00;6.00;;;;;34.65;88.94;101560.69;4861126;29;45335;-64
2021/07/15 11:15:49;;;;;;;;;6.25;6.25;;;;;34.48;89.17;101572.41;4860591;29;45458;-65
2021/07/15 11:21:25;;;;;;;;;6.00;6.00;;;;;33.56;90.60;101567.19;4860458;29;46155;-66
2021/07/15 11:24:14;;;;;;;;;8.75;8.00;;;;;33.80;94.84;101559.34;4861132;29;45325;-66
2021/07/15 11:26:41;;;;;;;;;6.00;5.50;;;;;34.27;95.14;101576.25;4860523;29;45502;-66
2021/07/15 11:29:08;;;;;;;;;5.25;5.25;;;;;35.45;87.46;101564.03;4861254;29;45453;-65
2021/07/15 11:31:44;;;;;;;;;6.00;6.00;;;;;35.36;88.62;101574.03;4860278;29;45406;-65
2021/07/15 11:34:31;;;;;;;;;5.75;5.00;;;;;35.23;89.07;101579.03;4860659;29;45660;-66
2021/07/15 11:37:22;;;;;;;;;6.00;6.00;;;;;34.82;85.87;101575.19;4859874;29;45426;-65
2021/07/15 11:39:47;;;;;;;;;5.00;5.00;;;;;34.40;87.82;101573.16;4860691;29;45473;-65
2021/07/15 11:42:23;;;;;;;;;7.75;5.75;;;;;33.90;86.20;101579.09;4860161;29;47314;-66
2021/07/15 11:45:14;;;;;;;;;5.75;5.75;;;;;33.54;89.46;101582.75;4860657;29;45419;-65
2021/07/15 11:47:43;;;;;;;;;5.75;5.75;;;;;33.64;89.75;101575.41;4871304;28;45557;-66
2021/07/15 11:53:30;;;;;;;;;8.00;7.00;;;;;33.92;88.39;101573.53;4957783;28;45547;-65
2021/07/15 11:55:57;;;;;;;;;6.25;6.25;;;;;33.47;85.56;101585.19;4957648;28;45351;-65
2021/07/15 11:58:42;;;;;;;;;5.75;5.75;;;;;34.43;89.01;101586.44;4956893;28;45388;-65
2021/07/15 12:01:17;;;;;;;;;8.00;6.25;;;;;34.99;85.66;101583.31;4958208;28;45462;-64
2021/07/15 12:04:01;;;;;;;;;7.00;7.00;;;;;34.76;84.93;101581.25;4957278;28;47360;-65
2021/07/15 12:09:49;;;;;;;;;7.00;6.00;;;;;36.54;81.25;101586.53;4957926;28;45384;-64
2021/07/15 12:12:15;;;;;;;;;5.25;5.00;;;;;36.32;78.25;101592.66;4957617;28;45586;-65